sensor_id;sensor_type;location;lat;lon;timestamp;temperature;humidity
65598;SHT31;52267;51.984;20.956;2023-04-29T00:00:14;5.91;65.46
65598;SHT31;52267;51.984;20.956;2023-04-29T00:03:01;5.90;65.41
65598;SHT31;52267;51.984;20.956;2023-04-29T00:05:28;5.86;65.72
65598;SHT31;52267;51.984;20.956;2023-04-29T00:07:55;5.83;65.80
65598;SHT31;52267;51.984;20.956;2023-04-29T00:10:23;5.81;65.59
65598;SHT31;52267;51.984;20.956;2023-04-29T00:12:50;5.81;66.03
65598;SHT31;52267;51.984;20.956;2023-04-29T00:15:17;5.80;65.78
65598;SHT31;52267;51.984;20.956;2023-04-29T00:17:44;5.78;65.47
65598;SHT31;52267;51.984;20.956;2023-04-29T00:20:11;5.77;65.37
65598;SHT31;52267;51.984;20.956;2023-04-29T00:22:38;5.76;65.37
65598;SHT31;52267;51.984;20.956;2023-04-29T00:25:06;5.76;65.60
65598;SHT31;52267;51.984;20.956;2023-04-29T00:27:34;5.71;66.03
65598;SHT31;52267;51.984;20.956;2023-04-29T00:30:00;5.68;65.83
65598;SHT31;52267;51.984;20.956;2023-04-29T00:32:29;5.67;66.14
65598;SHT31;52267;51.984;20.956;2023-04-29T00:34:56;5.65;66.13
65598;SHT31;52267;51.984;20.956;2023-04-29T00:37:23;5.65;66.08
65598;SHT31;52267;51.984;20.956;2023-04-29T00:39:49;5.65;65.99
65598;SHT31;52267;51.984;20.956;2023-04-29T00:42:16;5.63;66.01
65598;SHT31;52267;51.984;20.956;2023-04-29T00:44:44;5.64;65.86
65598;SHT31;52267;51.984;20.956;2023-04-29T00:47:10;5.63;66.02
65598;SHT31;52267;51.984;20.956;2023-04-29T00:49:38;5.62;66.16
65598;SHT31;52267;51.984;20.956;2023-04-29T00:52:05;5.62;66.23
65598;SHT31;52267;51.984;20.956;2023-04-29T00:54:34;5.61;66.23
65598;SHT31;52267;51.984;20.956;2023-04-29T00:57:01;5.63;65.88
65598;SHT31;52267;51.984;20.956;2023-04-29T00:59:32;5.64;66.09
65598;SHT31;52267;51.984;20.956;2023-04-29T01:02:00;5.65;66.14
65598;SHT31;52267;51.984;20.956;2023-04-29T01:04:29;5.65;66.27
65598;SHT31;52267;51.984;20.956;2023-04-29T01:19:15;5.69;66.44
65598;SHT31;52267;51.984;20.956;2023-04-29T01:21:58;5.69;66.46
65598;SHT31;52267;51.984;20.956;2023-04-29T01:24:24;5.70;66.37
65598;SHT31;52267;51.984;20.956;2023-04-29T01:26:56;5.71;66.64
65598;SHT31;52267;51.984;20.956;2023-04-29T01:39:11;5.81;66.34
65598;SHT31;52267;51.984;20.956;2023-04-29T01:41:56;5.82;66.23
65598;SHT31;52267;51.984;20.956;2023-04-29T01:44:46;5.85;66.23
65598;SHT31;52267;51.984;20.956;2023-04-29T01:47:16;5.84;66.11
65598;SHT31;52267;51.984;20.956;2023-04-29T01:49:44;5.86;66.18
65598;SHT31;52267;51.984;20.956;2023-04-29T01:52:12;5.87;66.37
65598;SHT31;52267;51.984;20.956;2023-04-29T01:54:39;5.89;66.27
65598;SHT31;52267;51.984;20.956;2023-04-29T01:57:06;5.87;66.23
65598;SHT31;52267;51.984;20.956;2023-04-29T01:59:33;5.86;66.28
65598;SHT31;52267;51.984;20.956;2023-04-29T02:02:00;5.88;66.21
65598;SHT31;52267;51.984;20.956;2023-04-29T02:04:27;5.89;66.13
65598;SHT31;52267;51.984;20.956;2023-04-29T02:06:54;5.93;66.06
65598;SHT31;52267;51.984;20.956;2023-04-29T02:09:21;5.94;66.14
65598;SHT31;52267;51.984;20.956;2023-04-29T02:11:47;5.94;66.11
65598;SHT31;52267;51.984;20.956;2023-04-29T02:14:14;5.94;66.21
65598;SHT31;52267;51.984;20.956;2023-04-29T02:16:44;5.95;66.02
65598;SHT31;52267;51.984;20.956;2023-04-29T02:19:12;5.93;66.29
65598;SHT31;52267;51.984;20.956;2023-04-29T02:21:39;5.90;66.68
65598;SHT31;52267;51.984;20.956;2023-04-29T02:24:06;5.92;66.69
65598;SHT31;52267;51.984;20.956;2023-04-29T02:26:33;5.89;66.71
65598;SHT31;52267;51.984;20.956;2023-04-29T02:29:00;5.89;67.15
65598;SHT31;52267;51.984;20.956;2023-04-29T02:31:29;5.89;66.71
65598;SHT31;52267;51.984;20.956;2023-04-29T02:33:55;5.88;66.66
65598;SHT31;52267;51.984;20.956;2023-04-29T02:36:23;5.87;66.74
65598;SHT31;52267;51.984;20.956;2023-04-29T02:38:50;5.87;67.10
65598;SHT31;52267;51.984;20.956;2023-04-29T02:41:21;5.88;66.81
65598;SHT31;52267;51.984;20.956;2023-04-29T02:43:48;5.88;66.88
65598;SHT31;52267;51.984;20.956;2023-04-29T02:46:16;5.87;66.87
65598;SHT31;52267;51.984;20.956;2023-04-29T02:48:44;5.91;66.72
65598;SHT31;52267;51.984;20.956;2023-04-29T02:51:11;5.91;66.64
65598;SHT31;52267;51.984;20.956;2023-04-29T02:53:38;5.92;66.59
65598;SHT31;52267;51.984;20.956;2023-04-29T02:56:05;5.92;66.89
65598;SHT31;52267;51.984;20.956;2023-04-29T02:58:32;5.94;66.71
65598;SHT31;52267;51.984;20.956;2023-04-29T03:00:59;5.94;66.75
65598;SHT31;52267;51.984;20.956;2023-04-29T03:03:26;5.96;66.88
65598;SHT31;52267;51.984;20.956;2023-04-29T03:05:53;5.98;66.71
65598;SHT31;52267;51.984;20.956;2023-04-29T03:08:20;5.99;66.62
65598;SHT31;52267;51.984;20.956;2023-04-29T03:10:47;6.00;66.75
65598;SHT31;52267;51.984;20.956;2023-04-29T03:13:14;5.99;66.87
65598;SHT31;52267;51.984;20.956;2023-04-29T03:15:41;5.98;67.29
65598;SHT31;52267;51.984;20.956;2023-04-29T03:18:09;5.97;67.23
65598;SHT31;52267;51.984;20.956;2023-04-29T03:20:37;5.98;67.01
65598;SHT31;52267;51.984;20.956;2023-04-29T03:23:04;5.98;66.93
65598;SHT31;52267;51.984;20.956;2023-04-29T03:25:31;5.99;67.03
65598;SHT31;52267;51.984;20.956;2023-04-29T03:27:58;5.98;66.91
65598;SHT31;52267;51.984;20.956;2023-04-29T03:34:24;5.99;66.97
65598;SHT31;52267;51.984;20.956;2023-04-29T03:36:51;5.98;66.95
65598;SHT31;52267;51.984;20.956;2023-04-29T03:39:18;5.99;66.86
65598;SHT31;52267;51.984;20.956;2023-04-29T03:41:45;6.00;66.78
65598;SHT31;52267;51.984;20.956;2023-04-29T03:44:13;6.01;66.71
65598;SHT31;52267;51.984;20.956;2023-04-29T03:46:40;6.00;66.82
65598;SHT31;52267;51.984;20.956;2023-04-29T03:49:07;6.01;66.93
65598;SHT31;52267;51.984;20.956;2023-04-29T03:51:34;6.01;66.95
65598;SHT31;52267;51.984;20.956;2023-04-29T03:54:01;6.03;66.99
65598;SHT31;52267;51.984;20.956;2023-04-29T03:56:28;6.05;66.97
65598;SHT31;52267;51.984;20.956;2023-04-29T03:58:55;6.07;67.05
65598;SHT31;52267;51.984;20.956;2023-04-29T04:01:22;6.10;67.03
65598;SHT31;52267;51.984;20.956;2023-04-29T04:03:48;6.12;66.97
65598;SHT31;52267;51.984;20.956;2023-04-29T04:06:15;6.15;67.08
65598;SHT31;52267;51.984;20.956;2023-04-29T04:08:42;6.17;67.06
65598;SHT31;52267;51.984;20.956;2023-04-29T04:11:09;6.18;67.12
65598;SHT31;52267;51.984;20.956;2023-04-29T04:13:38;6.20;67.17
65598;SHT31;52267;51.984;20.956;2023-04-29T04:16:05;6.21;67.09
65598;SHT31;52267;51.984;20.956;2023-04-29T04:18:33;6.24;67.28
65598;SHT31;52267;51.984;20.956;2023-04-29T04:21:04;6.28;67.33
65598;SHT31;52267;51.984;20.956;2023-04-29T04:23:32;6.32;67.42
65598;SHT31;52267;51.984;20.956;2023-04-29T04:26:00;6.38;67.28
65598;SHT31;52267;51.984;20.956;2023-04-29T04:28:27;6.45;67.24
65598;SHT31;52267;51.984;20.956;2023-04-29T04:30:54;6.53;67.14
65598;SHT31;52267;51.984;20.956;2023-04-29T04:33:21;6.61;67.04
65598;SHT31;52267;51.984;20.956;2023-04-29T04:35:48;6.70;67.15
65598;SHT31;52267;51.984;20.956;2023-04-29T04:38:15;6.79;67.04
65598;SHT31;52267;51.984;20.956;2023-04-29T04:40:43;6.89;66.77
65598;SHT31;52267;51.984;20.956;2023-04-29T04:43:10;6.97;66.44
65598;SHT31;52267;51.984;20.956;2023-04-29T04:45:37;7.07;66.33
65598;SHT31;52267;51.984;20.956;2023-04-29T04:48:04;7.14;66.17
65598;SHT31;52267;51.984;20.956;2023-04-29T04:50:32;7.18;66.30
65598;SHT31;52267;51.984;20.956;2023-04-29T04:52:59;7.23;66.30
65598;SHT31;52267;51.984;20.956;2023-04-29T04:55:26;7.30;66.07
65598;SHT31;52267;51.984;20.956;2023-04-29T04:57:53;7.41;65.94
65598;SHT31;52267;51.984;20.956;2023-04-29T05:00:20;7.54;65.70
65598;SHT31;52267;51.984;20.956;2023-04-29T05:02:47;7.65;65.59
65598;SHT31;52267;51.984;20.956;2023-04-29T05:05:14;7.73;65.33
65598;SHT31;52267;51.984;20.956;2023-04-29T05:07:42;7.79;64.90
65598;SHT31;52267;51.984;20.956;2023-04-29T05:10:09;7.85;64.56
65598;SHT31;52267;51.984;20.956;2023-04-29T05:12:36;7.95;64.55
65598;SHT31;52267;51.984;20.956;2023-04-29T05:15:03;8.03;64.24
65598;SHT31;52267;51.984;20.956;2023-04-29T05:17:31;8.09;63.80
65598;SHT31;52267;51.984;20.956;2023-04-29T05:20:00;8.15;63.60
65598;SHT31;52267;51.984;20.956;2023-04-29T05:22:27;8.23;63.50
65598;SHT31;52267;51.984;20.956;2023-04-29T05:24:54;8.26;63.22
65598;SHT31;52267;51.984;20.956;2023-04-29T05:27:28;8.31;63.13
65598;SHT31;52267;51.984;20.956;2023-04-29T05:29:55;8.28;62.53
65598;SHT31;52267;51.984;20.956;2023-04-29T05:32:22;8.34;62.98
65598;SHT31;52267;51.984;20.956;2023-04-29T05:34:49;8.35;62.63
65598;SHT31;52267;51.984;20.956;2023-04-29T05:37:16;8.35;62.40
65598;SHT31;52267;51.984;20.956;2023-04-29T05:39:43;8.34;62.51
65598;SHT31;52267;51.984;20.956;2023-04-29T05:42:10;8.44;62.94
65598;SHT31;52267;51.984;20.956;2023-04-29T05:44:37;8.61;62.76
65598;SHT31;52267;51.984;20.956;2023-04-29T05:47:05;8.71;62.36
65598;SHT31;52267;51.984;20.956;2023-04-29T05:49:32;8.79;61.81
65598;SHT31;52267;51.984;20.956;2023-04-29T05:51:59;8.88;62.00
65598;SHT31;52267;51.984;20.956;2023-04-29T05:54:29;8.96;61.63
65598;SHT31;52267;51.984;20.956;2023-04-29T05:56:56;9.12;62.20
65598;SHT31;52267;51.984;20.956;2023-04-29T05:59:23;9.31;62.00
65598;SHT31;52267;51.984;20.956;2023-04-29T06:01:50;9.34;60.55
65598;SHT31;52267;51.984;20.956;2023-04-29T06:04:17;9.39;60.48
65598;SHT31;52267;51.984;20.956;2023-04-29T06:06:44;9.49;60.56
65598;SHT31;52267;51.984;20.956;2023-04-29T06:09:12;9.54;60.34
65598;SHT31;52267;51.984;20.956;2023-04-29T06:11:40;9.66;60.43
65598;SHT31;52267;51.984;20.956;2023-04-29T06:14:07;9.80;59.88
65598;SHT31;52267;51.984;20.956;2023-04-29T06:16:34;9.87;59.47
65598;SHT31;52267;51.984;20.956;2023-04-29T06:19:01;10.00;58.98
65598;SHT31;52267;51.984;20.956;2023-04-29T06:21:28;10.06;58.19
65598;SHT31;52267;51.984;20.956;2023-04-29T06:23:57;10.13;58.22
65598;SHT31;52267;51.984;20.956;2023-04-29T06:26:24;10.24;58.61
65598;SHT31;52267;51.984;20.956;2023-04-29T06:28:51;10.44;58.82
65598;SHT31;52267;51.984;20.956;2023-04-29T06:31:19;10.60;57.80
65598;SHT31;52267;51.984;20.956;2023-04-29T06:33:46;10.65;57.39
65598;SHT31;52267;51.984;20.956;2023-04-29T06:36:13;10.74;57.11
65598;SHT31;52267;51.984;20.956;2023-04-29T06:38:40;10.83;56.93
65598;SHT31;52267;51.984;20.956;2023-04-29T06:41:07;11.04;57.73
65598;SHT31;52267;51.984;20.956;2023-04-29T06:43:34;11.22;56.63
65598;SHT31;52267;51.984;20.956;2023-04-29T06:46:02;11.29;55.79
65598;SHT31;52267;51.984;20.956;2023-04-29T06:48:29;11.44;55.57
65598;SHT31;52267;51.984;20.956;2023-04-29T06:50:56;11.72;56.11
65598;SHT31;52267;51.984;20.956;2023-04-29T06:53:24;12.03;56.33
65598;SHT31;52267;51.984;20.956;2023-04-29T06:55:51;12.11;54.15
65598;SHT31;52267;51.984;20.956;2023-04-29T06:58:18;12.14;53.98
65598;SHT31;52267;51.984;20.956;2023-04-29T07:00:46;12.17;54.08
65598;SHT31;52267;51.984;20.956;2023-04-29T07:03:16;12.18;53.82
65598;SHT31;52267;51.984;20.956;2023-04-29T07:05:44;12.31;53.99
65598;SHT31;52267;51.984;20.956;2023-04-29T07:08:11;12.50;53.18
65598;SHT31;52267;51.984;20.956;2023-04-29T07:10:39;12.65;52.78
65598;SHT31;52267;51.984;20.956;2023-04-29T07:13:07;12.85;52.95
65598;SHT31;52267;51.984;20.956;2023-04-29T07:15:34;13.04;53.11
65598;SHT31;52267;51.984;20.956;2023-04-29T07:18:03;13.01;52.44
65598;SHT31;52267;51.984;20.956;2023-04-29T07:20:31;13.07;52.38
65598;SHT31;52267;51.984;20.956;2023-04-29T07:22:58;13.05;52.11
65598;SHT31;52267;51.984;20.956;2023-04-29T07:25:25;12.96;51.59
65598;SHT31;52267;51.984;20.956;2023-04-29T07:27:54;12.97;52.36
65598;SHT31;52267;51.984;20.956;2023-04-29T07:30:22;13.05;52.71
65598;SHT31;52267;51.984;20.956;2023-04-29T07:32:49;13.10;52.17
65598;SHT31;52267;51.984;20.956;2023-04-29T07:35:16;12.96;51.31
65598;SHT31;52267;51.984;20.956;2023-04-29T07:37:43;12.90;51.40
65598;SHT31;52267;51.984;20.956;2023-04-29T07:40:12;12.99;52.07
65598;SHT31;52267;51.984;20.956;2023-04-29T07:42:39;13.11;52.14
65598;SHT31;52267;51.984;20.956;2023-04-29T07:45:06;13.19;51.69
65598;SHT31;52267;51.984;20.956;2023-04-29T07:47:34;13.27;51.94
65598;SHT31;52267;51.984;20.956;2023-04-29T07:50:01;13.40;51.77
65598;SHT31;52267;51.984;20.956;2023-04-29T07:52:29;13.46;51.23
65598;SHT31;52267;51.984;20.956;2023-04-29T07:54:56;13.59;50.92
65598;SHT31;52267;51.984;20.956;2023-04-29T07:57:23;13.64;50.33
65598;SHT31;52267;51.984;20.956;2023-04-29T07:59:53;13.76;50.03
65598;SHT31;52267;51.984;20.956;2023-04-29T08:02:20;13.84;50.07
65598;SHT31;52267;51.984;20.956;2023-04-29T08:04:47;13.86;50.05
65598;SHT31;52267;51.984;20.956;2023-04-29T08:07:16;13.91;49.92
65598;SHT31;52267;51.984;20.956;2023-04-29T08:09:43;14.07;50.63
65598;SHT31;52267;51.984;20.956;2023-04-29T08:12:10;14.15;49.79
65598;SHT31;52267;51.984;20.956;2023-04-29T08:14:37;14.19;49.59
65598;SHT31;52267;51.984;20.956;2023-04-29T08:17:04;14.27;49.75
65598;SHT31;52267;51.984;20.956;2023-04-29T08:19:32;14.45;50.39
65598;SHT31;52267;51.984;20.956;2023-04-29T08:21:59;14.69;50.18
65598;SHT31;52267;51.984;20.956;2023-04-29T08:24:26;14.71;48.81
65598;SHT31;52267;51.984;20.956;2023-04-29T08:26:54;14.88;48.96
65598;SHT31;52267;51.984;20.956;2023-04-29T08:29:21;15.01;49.19
65598;SHT31;52267;51.984;20.956;2023-04-29T08:31:48;15.17;49.16
65598;SHT31;52267;51.984;20.956;2023-04-29T08:34:16;15.18;48.09
65598;SHT31;52267;51.984;20.956;2023-04-29T08:36:43;15.14;47.97
65598;SHT31;52267;51.984;20.956;2023-04-29T08:39:10;15.23;48.11
65598;SHT31;52267;51.984;20.956;2023-04-29T08:41:37;15.34;47.37
65598;SHT31;52267;51.984;20.956;2023-04-29T08:44:04;15.50;47.07
65598;SHT31;52267;51.984;20.956;2023-04-29T08:46:31;15.75;47.43
65598;SHT31;52267;51.984;20.956;2023-04-29T08:48:59;16.02;47.67
65598;SHT31;52267;51.984;20.956;2023-04-29T08:51:29;16.05;45.92
65598;SHT31;52267;51.984;20.956;2023-04-29T08:53:58;16.14;46.16
65598;SHT31;52267;51.984;20.956;2023-04-29T08:56:25;16.33;46.43
65598;SHT31;52267;51.984;20.956;2023-04-29T08:58:54;16.62;46.67
65598;SHT31;52267;51.984;20.956;2023-04-29T09:01:27;16.74;45.93
65598;SHT31;52267;51.984;20.956;2023-04-29T09:06:58;16.88;46.67
65598;SHT31;52267;51.984;20.956;2023-04-29T09:09:25;16.99;46.08
65598;SHT31;52267;51.984;20.956;2023-04-29T09:11:52;17.31;45.52
65598;SHT31;52267;51.984;20.956;2023-04-29T09:14:21;17.53;45.23
65598;SHT31;52267;51.984;20.956;2023-04-29T09:16:49;17.91;45.03
65598;SHT31;52267;51.984;20.956;2023-04-29T09:19:30;18.19;44.24
65598;SHT31;52267;51.984;20.956;2023-04-29T09:22:00;18.61;43.31
65598;SHT31;52267;51.984;20.956;2023-04-29T09:24:29;18.87;42.98
65598;SHT31;52267;51.984;20.956;2023-04-29T09:26:57;18.79;41.76
65598;SHT31;52267;51.984;20.956;2023-04-29T09:29:25;18.57;42.44
65598;SHT31;52267;51.984;20.956;2023-04-29T09:31:52;18.74;42.85
65598;SHT31;52267;51.984;20.956;2023-04-29T09:34:32;18.82;42.76
65598;SHT31;52267;51.984;20.956;2023-04-29T09:37:22;18.70;41.48
65598;SHT31;52267;51.984;20.956;2023-04-29T09:39:53;18.63;41.84
65598;SHT31;52267;51.984;20.956;2023-04-29T09:42:20;18.57;42.20
65598;SHT31;52267;51.984;20.956;2023-04-29T09:44:47;18.51;41.85
65598;SHT31;52267;51.984;20.956;2023-04-29T09:47:14;18.57;42.10
65598;SHT31;52267;51.984;20.956;2023-04-29T09:49:43;18.63;42.41
65598;SHT31;52267;51.984;20.956;2023-04-29T09:52:15;18.71;42.42
65598;SHT31;52267;51.984;20.956;2023-04-29T09:54:43;18.65;42.54
65598;SHT31;52267;51.984;20.956;2023-04-29T09:57:11;18.75;43.06
65598;SHT31;52267;51.984;20.956;2023-04-29T09:59:45;18.76;42.32
65598;SHT31;52267;51.984;20.956;2023-04-29T10:02:13;18.74;42.08
65598;SHT31;52267;51.984;20.956;2023-04-29T10:04:46;18.77;42.09
65598;SHT31;52267;51.984;20.956;2023-04-29T10:07:19;18.79;42.59
65598;SHT31;52267;51.984;20.956;2023-04-29T10:09:47;18.78;42.17
65598;SHT31;52267;51.984;20.956;2023-04-29T10:12:15;18.58;41.63
65598;SHT31;52267;51.984;20.956;2023-04-29T10:15:10;18.31;42.05
65598;SHT31;52267;51.984;20.956;2023-04-29T10:18:10;18.20;42.47
65598;SHT31;52267;51.984;20.956;2023-04-29T10:20:44;17.84;42.47
65598;SHT31;52267;51.984;20.956;2023-04-29T10:23:14;17.83;43.04
65598;SHT31;52267;51.984;20.956;2023-04-29T10:25:41;17.85;42.73
65598;SHT31;52267;51.984;20.956;2023-04-29T10:28:11;18.06;43.06
65598;SHT31;52267;51.984;20.956;2023-04-29T10:30:42;18.22;42.03
65598;SHT31;52267;51.984;20.956;2023-04-29T10:33:11;18.30;42.10
65598;SHT31;52267;51.984;20.956;2023-04-29T10:35:45;18.64;41.77
65598;SHT31;52267;51.984;20.956;2023-04-29T10:38:16;18.75;41.45
65598;SHT31;52267;51.984;20.956;2023-04-29T10:40:54;18.88;41.27
65598;SHT31;52267;51.984;20.956;2023-04-29T10:43:24;18.74;40.52
65598;SHT31;52267;51.984;20.956;2023-04-29T10:49:00;19.29;40.22
65598;SHT31;52267;51.984;20.956;2023-04-29T10:51:41;19.43;39.80
65598;SHT31;52267;51.984;20.956;2023-04-29T10:54:13;19.56;40.37
65598;SHT31;52267;51.984;20.956;2023-04-29T10:56:51;19.83;39.65
65598;SHT31;52267;51.984;20.956;2023-04-29T11:01:58;19.48;38.89
65598;SHT31;52267;51.984;20.956;2023-04-29T11:04:25;19.50;40.12
65598;SHT31;52267;51.984;20.956;2023-04-29T11:06:53;19.51;39.90
65598;SHT31;52267;51.984;20.956;2023-04-29T11:14:33;18.88;39.78
65598;SHT31;52267;51.984;20.956;2023-04-29T11:17:16;18.63;40.17
65598;SHT31;52267;51.984;20.956;2023-04-29T11:19:49;18.74;40.10
65598;SHT31;52267;51.984;20.956;2023-04-29T11:25:01;18.80;41.01
65598;SHT31;52267;51.984;20.956;2023-04-29T11:27:37;18.74;40.43
65598;SHT31;52267;51.984;20.956;2023-04-29T11:30:07;18.50;40.41
65598;SHT31;52267;51.984;20.956;2023-04-29T11:32:36;18.46;41.03
65598;SHT31;52267;51.984;20.956;2023-04-29T11:35:09;18.52;41.28
65598;SHT31;52267;51.984;20.956;2023-04-29T11:37:42;18.75;41.55
65598;SHT31;52267;51.984;20.956;2023-04-29T11:40:11;18.93;40.61
65598;SHT31;52267;51.984;20.956;2023-04-29T11:42:40;18.95;39.97
65598;SHT31;52267;51.984;20.956;2023-04-29T11:45:17;19.00;40.38
65598;SHT31;52267;51.984;20.956;2023-04-29T11:47:45;18.97;40.38
65598;SHT31;52267;51.984;20.956;2023-04-29T11:50:14;18.74;40.72
65598;SHT31;52267;51.984;20.956;2023-04-29T11:52:45;18.73;40.90
65598;SHT31;52267;51.984;20.956;2023-04-29T11:55:13;18.97;41.00
65598;SHT31;52267;51.984;20.956;2023-04-29T11:57:41;19.19;41.48
65598;SHT31;52267;51.984;20.956;2023-04-29T12:00:08;19.21;40.54
65598;SHT31;52267;51.984;20.956;2023-04-29T12:02:42;19.06;40.01
65598;SHT31;52267;51.984;20.956;2023-04-29T12:05:14;19.44;40.25
65598;SHT31;52267;51.984;20.956;2023-04-29T12:07:41;19.33;39.96
65598;SHT31;52267;51.984;20.956;2023-04-29T12:10:09;19.10;40.05
65598;SHT31;52267;51.984;20.956;2023-04-29T12:12:38;19.03;40.42
65598;SHT31;52267;51.984;20.956;2023-04-29T12:15:14;19.43;40.69
65598;SHT31;52267;51.984;20.956;2023-04-29T12:17:41;19.70;39.96
65598;SHT31;52267;51.984;20.956;2023-04-29T12:20:09;19.84;39.80
65598;SHT31;52267;51.984;20.956;2023-04-29T12:22:37;20.01;40.03
65598;SHT31;52267;51.984;20.956;2023-04-29T12:25:05;19.99;39.36
65598;SHT31;52267;51.984;20.956;2023-04-29T12:27:33;20.26;39.62
65598;SHT31;52267;51.984;20.956;2023-04-29T12:30:05;20.22;38.37
65598;SHT31;52267;51.984;20.956;2023-04-29T12:32:36;20.27;38.75
65598;SHT31;52267;51.984;20.956;2023-04-29T12:35:04;20.45;39.02
65598;SHT31;52267;51.984;20.956;2023-04-29T12:37:32;20.17;38.06
65598;SHT31;52267;51.984;20.956;2023-04-29T12:40:00;19.83;38.54
65598;SHT31;52267;51.984;20.956;2023-04-29T12:42:31;19.89;38.87
65598;SHT31;52267;51.984;20.956;2023-04-29T12:44:59;20.20;39.08
65598;SHT31;52267;51.984;20.956;2023-04-29T12:47:30;20.07;38.78
65598;SHT31;52267;51.984;20.956;2023-04-29T12:50:02;19.83;39.63
65598;SHT31;52267;51.984;20.956;2023-04-29T12:52:29;19.69;39.67
65598;SHT31;52267;51.984;20.956;2023-04-29T12:54:56;19.74;39.74
65598;SHT31;52267;51.984;20.956;2023-04-29T12:57:23;20.07;39.36
65598;SHT31;52267;51.984;20.956;2023-04-29T12:59:51;20.35;39.22
65598;SHT31;52267;51.984;20.956;2023-04-29T13:02:18;20.59;38.28
65598;SHT31;52267;51.984;20.956;2023-04-29T13:04:45;20.81;37.65
65598;SHT31;52267;51.984;20.956;2023-04-29T13:07:12;20.73;36.42
65598;SHT31;52267;51.984;20.956;2023-04-29T13:09:39;20.68;37.45
65598;SHT31;52267;51.984;20.956;2023-04-29T13:12:07;20.52;37.96
65598;SHT31;52267;51.984;20.956;2023-04-29T13:14:34;20.53;38.29
65598;SHT31;52267;51.984;20.956;2023-04-29T13:17:01;20.42;37.88
65598;SHT31;52267;51.984;20.956;2023-04-29T13:19:29;20.27;38.53
65598;SHT31;52267;51.984;20.956;2023-04-29T13:21:57;19.93;38.57
65598;SHT31;52267;51.984;20.956;2023-04-29T13:24:24;19.65;39.50
65598;SHT31;52267;51.984;20.956;2023-04-29T13:26:51;19.78;39.60
65598;SHT31;52267;51.984;20.956;2023-04-29T13:29:19;19.94;39.28
65598;SHT31;52267;51.984;20.956;2023-04-29T13:31:46;19.95;39.18
65598;SHT31;52267;51.984;20.956;2023-04-29T13:34:13;19.98;38.30
65598;SHT31;52267;51.984;20.956;2023-04-29T13:36:40;20.18;38.33
65598;SHT31;52267;51.984;20.956;2023-04-29T13:39:07;20.48;38.03
65598;SHT31;52267;51.984;20.956;2023-04-29T13:41:35;20.89;37.98
65598;SHT31;52267;51.984;20.956;2023-04-29T13:44:02;21.27;37.65
65598;SHT31;52267;51.984;20.956;2023-04-29T13:46:29;21.59;37.77
65598;SHT31;52267;51.984;20.956;2023-04-29T13:48:57;21.86;36.80
65598;SHT31;52267;51.984;20.956;2023-04-29T13:51:24;21.74;37.49
65598;SHT31;52267;51.984;20.956;2023-04-29T13:53:51;21.39;36.83
65598;SHT31;52267;51.984;20.956;2023-04-29T13:56:18;21.17;37.30
65598;SHT31;52267;51.984;20.956;2023-04-29T13:58:46;21.02;37.25
65598;SHT31;52267;51.984;20.956;2023-04-29T14:01:15;20.77;37.97
65598;SHT31;52267;51.984;20.956;2023-04-29T14:03:42;20.64;38.31
65598;SHT31;52267;51.984;20.956;2023-04-29T14:06:09;20.56;38.10
65598;SHT31;52267;51.984;20.956;2023-04-29T14:08:36;20.58;38.21
65598;SHT31;52267;51.984;20.956;2023-04-29T14:11:03;20.56;38.40
65598;SHT31;52267;51.984;20.956;2023-04-29T14:13:30;20.28;38.54
65598;SHT31;52267;51.984;20.956;2023-04-29T14:15:57;20.21;39.28
65598;SHT31;52267;51.984;20.956;2023-04-29T14:18:25;19.98;39.28
65598;SHT31;52267;51.984;20.956;2023-04-29T14:20:52;19.78;39.42
65598;SHT31;52267;51.984;20.956;2023-04-29T14:23:20;19.65;39.18
65598;SHT31;52267;51.984;20.956;2023-04-29T14:25:47;19.53;39.82
65598;SHT31;52267;51.984;20.956;2023-04-29T14:28:14;19.52;39.72
65598;SHT31;52267;51.984;20.956;2023-04-29T14:30:41;19.41;39.26
65598;SHT31;52267;51.984;20.956;2023-04-29T14:33:09;19.26;39.21
65598;SHT31;52267;51.984;20.956;2023-04-29T14:35:36;19.23;39.73
65598;SHT31;52267;51.984;20.956;2023-04-29T14:38:03;19.17;40.14
65598;SHT31;52267;51.984;20.956;2023-04-29T14:40:30;19.17;40.73
65598;SHT31;52267;51.984;20.956;2023-04-29T14:42:57;19.18;40.71
65598;SHT31;52267;51.984;20.956;2023-04-29T14:45:24;19.19;40.95
65598;SHT31;52267;51.984;20.956;2023-04-29T14:47:51;19.10;40.52
65598;SHT31;52267;51.984;20.956;2023-04-29T14:50:18;19.08;40.41
65598;SHT31;52267;51.984;20.956;2023-04-29T14:52:45;18.97;40.59
65598;SHT31;52267;51.984;20.956;2023-04-29T14:55:12;18.87;40.49
65598;SHT31;52267;51.984;20.956;2023-04-29T14:57:42;18.84;41.15
65598;SHT31;52267;51.984;20.956;2023-04-29T15:00:09;19.05;41.39
65598;SHT31;52267;51.984;20.956;2023-04-29T15:02:37;19.05;40.98
65598;SHT31;52267;51.984;20.956;2023-04-29T15:05:04;19.01;40.95
65598;SHT31;52267;51.984;20.956;2023-04-29T15:07:32;19.06;41.22
65598;SHT31;52267;51.984;20.956;2023-04-29T15:09:59;19.05;41.32
65598;SHT31;52267;51.984;20.956;2023-04-29T15:12:26;19.09;41.37
65598;SHT31;52267;51.984;20.956;2023-04-29T15:14:53;19.07;41.34
65598;SHT31;52267;51.984;20.956;2023-04-29T15:17:20;18.97;41.54
65598;SHT31;52267;51.984;20.956;2023-04-29T15:19:47;18.91;41.72
65598;SHT31;52267;51.984;20.956;2023-04-29T15:22:14;18.88;41.60
65598;SHT31;52267;51.984;20.956;2023-04-29T15:24:41;18.95;41.57
65598;SHT31;52267;51.984;20.956;2023-04-29T15:27:08;19.10;42.07
65598;SHT31;52267;51.984;20.956;2023-04-29T15:29:35;19.18;41.26
65598;SHT31;52267;51.984;20.956;2023-04-29T15:32:03;19.24;41.23
65598;SHT31;52267;51.984;20.956;2023-04-29T15:34:30;19.34;40.97
65598;SHT31;52267;51.984;20.956;2023-04-29T15:36:57;19.32;41.17
65598;SHT31;52267;51.984;20.956;2023-04-29T15:39:25;19.08;40.70
65598;SHT31;52267;51.984;20.956;2023-04-29T15:41:52;18.97;41.34
65598;SHT31;52267;51.984;20.956;2023-04-29T15:44:19;18.83;41.76
65598;SHT31;52267;51.984;20.956;2023-04-29T15:46:46;18.73;42.10
65598;SHT31;52267;51.984;20.956;2023-04-29T15:49:14;18.67;42.29
65598;SHT31;52267;51.984;20.956;2023-04-29T15:51:40;18.62;42.33
65598;SHT31;52267;51.984;20.956;2023-04-29T15:54:07;18.51;42.33
65598;SHT31;52267;51.984;20.956;2023-04-29T15:56:35;18.45;42.90
65598;SHT31;52267;51.984;20.956;2023-04-29T15:59:02;18.37;43.02
65598;SHT31;52267;51.984;20.956;2023-04-29T16:01:29;18.15;42.75
65598;SHT31;52267;51.984;20.956;2023-04-29T16:03:56;18.05;43.46
65598;SHT31;52267;51.984;20.956;2023-04-29T16:06:23;17.99;43.39
65598;SHT31;52267;51.984;20.956;2023-04-29T16:08:50;17.97;43.26
65598;SHT31;52267;51.984;20.956;2023-04-29T16:11:17;17.87;43.59